createdAt,value
2022-11-27T00:01:36.626Z,19.17
2022-11-27T00:04:05.078Z,20.20
2022-11-27T00:06:34.449Z,18.80
2022-11-27T00:09:06.706Z,20.73
2022-11-27T00:11:35.737Z,19.10
2022-11-27T00:14:03.948Z,20.10
2022-11-27T00:16:32.411Z,21.23
2022-11-27T00:19:00.752Z,20.23
2022-11-27T00:21:31.370Z,19.00
2022-11-27T00:24:02.793Z,19.27
2022-11-27T00:26:37.882Z,20.17
2022-11-27T00:29:07.831Z,19.77
2022-11-27T00:31:37.585Z,19.63
2022-11-27T00:34:08.302Z,21.77
2022-11-27T00:36:36.969Z,22.07
2022-11-27T00:39:05.526Z,19.53
2022-11-27T00:41:35.665Z,21.10
2022-11-27T00:44:03.800Z,20.77
2022-11-27T00:46:34.115Z,22.30
2022-11-27T00:49:05.079Z,20.73
2022-11-27T00:51:33.922Z,21.43
2022-11-27T00:54:02.005Z,20.23
2022-11-27T00:56:32.152Z,21.13
2022-11-27T00:59:01.870Z,19.77
2022-11-27T01:01:32.205Z,19.03
2022-11-27T01:04:01.818Z,21.80
2022-11-27T01:06:31.429Z,21.10
2022-11-27T01:09:00.425Z,21.53
2022-11-27T01:11:30.923Z,22.67
2022-11-27T01:14:03.384Z,22.20
2022-11-27T01:16:33.334Z,23.23
2022-11-27T01:19:02.790Z,21.33
2022-11-27T01:21:32.800Z,22.30
2022-11-27T01:24:01.795Z,20.60
2022-11-27T01:26:30.581Z,23.03
2022-11-27T01:28:59.723Z,21.20
2022-11-27T01:31:31.609Z,23.47
2022-11-27T01:34:01.378Z,23.77
2022-11-27T01:36:30.521Z,22.67
2022-11-27T01:38:58.650Z,23.47
2022-11-27T01:41:29.389Z,24.17
2022-11-27T01:43:59.304Z,23.30
2022-11-27T01:46:38.401Z,23.87
2022-11-27T01:49:24.813Z,22.97
2022-11-27T01:51:57.137Z,23.53
2022-11-27T01:54:28.018Z,24.80
2022-11-27T01:57:00.580Z,22.97
2022-11-27T01:59:28.704Z,23.63
2022-11-27T02:01:58.432Z,22.27
2022-11-27T02:04:26.525Z,25.30
2022-11-27T02:06:56.496Z,23.83
2022-11-27T02:09:24.622Z,23.83
2022-11-27T02:11:58.940Z,24.90
2022-11-27T02:14:33.198Z,24.63
2022-11-27T02:17:09.652Z,24.67
2022-11-27T02:19:52.441Z,24.33
2022-11-27T02:22:33.688Z,24.93
2022-11-27T02:25:08.541Z,24.50
2022-11-27T02:28:09.423Z,25.40
2022-11-27T02:30:46.584Z,27.57
2022-11-27T02:33:21.005Z,24.10
2022-11-27T02:35:52.997Z,26.90
2022-11-27T02:38:28.636Z,26.27
2022-11-27T02:41:00.502Z,26.90
2022-11-27T02:43:34.477Z,27.00
2022-11-27T02:46:06.143Z,24.60
2022-11-27T02:48:37.418Z,28.40
2022-11-27T02:51:07.890Z,26.63
2022-11-27T02:53:39.173Z,26.33
2022-11-27T02:56:11.179Z,26.30
2022-11-27T02:58:41.037Z,26.23
2022-11-27T03:01:13.135Z,24.43
2022-11-27T03:03:46.851Z,25.83
2022-11-27T03:06:21.064Z,23.80
2022-11-27T03:08:54.895Z,25.50
2022-11-27T03:11:24.550Z,25.57
2022-11-27T03:13:56.953Z,24.47
2022-11-27T03:16:35.733Z,23.33
2022-11-27T03:19:12.758Z,24.17
2022-11-27T03:21:43.368Z,22.67
2022-11-27T03:24:13.306Z,23.37
2022-11-27T03:26:42.029Z,24.17
2022-11-27T03:29:13.398Z,24.00
2022-11-27T03:31:42.867Z,24.30
2022-11-27T03:34:11.870Z,22.23
2022-11-27T03:36:39.862Z,25.00
2022-11-27T03:39:08.308Z,23.83
2022-11-27T03:41:43.354Z,24.93
2022-11-27T03:44:23.708Z,24.73
2022-11-27T03:47:04.108Z,25.23
2022-11-27T03:49:43.932Z,23.73
2022-11-27T03:52:21.327Z,23.83
2022-11-27T03:54:56.937Z,22.73
2022-11-27T03:57:33.185Z,24.20
2022-11-27T04:00:07.389Z,23.93
2022-11-27T04:02:44.151Z,24.93
2022-11-27T04:05:13.699Z,24.30
2022-11-27T04:07:42.369Z,25.67
2022-11-27T04:10:12.023Z,25.47
2022-11-27T04:12:40.180Z,23.80
2022-11-27T04:15:09.249Z,25.57
2022-11-27T04:17:37.233Z,23.73
2022-11-27T04:20:08.271Z,24.47
2022-11-27T04:22:36.428Z,25.87
2022-11-27T04:25:05.355Z,24.20
2022-11-27T04:27:33.422Z,23.63
2022-11-27T04:30:01.664Z,24.00
2022-11-27T04:32:29.794Z,23.50
2022-11-27T04:34:58.193Z,24.37
2022-11-27T04:37:27.577Z,25.37
2022-11-27T04:39:55.865Z,24.97
2022-11-27T04:42:23.954Z,23.50
2022-11-27T04:44:52.197Z,24.23
2022-11-27T04:47:20.216Z,21.83
2022-11-27T04:49:48.758Z,22.33
2022-11-27T04:52:16.742Z,21.37
2022-11-27T04:54:46.419Z,22.40
2022-11-27T04:57:14.459Z,22.10
2022-11-27T04:59:42.753Z,21.77
2022-11-27T05:02:10.943Z,22.80
2022-11-27T05:04:39.531Z,22.90
2022-11-27T05:07:08.032Z,21.63
2022-11-27T05:09:36.327Z,22.53
2022-11-27T05:12:06.263Z,20.87
2022-11-27T05:14:35.121Z,21.73
2022-11-27T05:17:03.432Z,22.87
2022-11-27T05:19:32.770Z,22.07
2022-11-27T05:22:00.854Z,20.70
2022-11-27T05:24:30.172Z,22.07
2022-11-27T05:26:58.744Z,21.70
2022-11-27T05:29:28.575Z,20.80
2022-11-27T05:31:56.666Z,20.57
2022-11-27T05:34:25.346Z,20.20
2022-11-27T05:36:53.359Z,19.87
2022-11-27T05:39:22.082Z,21.77
2022-11-27T05:41:50.137Z,23.03
2022-11-27T05:44:18.459Z,21.27
2022-11-27T05:46:48.096Z,20.90
2022-11-27T05:49:17.324Z,20.07
2022-11-27T05:51:50.946Z,21.63
2022-11-27T05:54:20.453Z,22.47
2022-11-27T05:56:48.567Z,22.27
2022-11-27T05:59:16.977Z,21.33
2022-11-27T06:01:45.106Z,21.23
2022-11-27T06:04:15.007Z,21.40
2022-11-27T06:06:43.055Z,20.43
2022-11-27T06:09:13.379Z,21.67
2022-11-27T06:11:42.088Z,20.53
2022-11-27T06:14:11.712Z,22.13
2022-11-27T06:16:39.927Z,20.03
2022-11-27T06:19:09.111Z,22.77
2022-11-27T06:21:38.520Z,22.07
2022-11-27T06:24:07.459Z,21.63
2022-11-27T06:26:35.823Z,21.40
2022-11-27T06:29:04.780Z,21.47
2022-11-27T06:31:34.598Z,20.40
2022-11-27T06:34:03.948Z,22.73
2022-11-27T06:36:34.137Z,23.83
2022-11-27T06:39:05.726Z,24.20
2022-11-27T06:41:34.242Z,29.03
2022-11-27T06:44:02.918Z,26.40
2022-11-27T06:46:31.561Z,27.10
2022-11-27T06:49:00.390Z,28.53
2022-11-27T06:51:30.719Z,24.93
2022-11-27T06:54:03.394Z,23.17
2022-11-27T06:56:32.713Z,23.23
2022-11-27T06:59:02.420Z,21.93
2022-11-27T07:01:32.467Z,22.73
2022-11-27T07:04:01.253Z,24.63
2022-11-27T07:06:29.635Z,29.57
2022-11-27T07:08:58.053Z,23.33
2022-11-27T07:11:29.726Z,25.83
2022-11-27T07:13:59.604Z,22.70
2022-11-27T07:16:29.202Z,23.97
2022-11-27T07:18:59.957Z,25.23
2022-11-27T07:21:28.448Z,23.27
2022-11-27T07:23:57.669Z,24.40
2022-11-27T07:26:28.842Z,22.70
2022-11-27T07:28:57.764Z,23.47
2022-11-27T07:31:28.755Z,25.30
2022-11-27T07:33:57.931Z,24.43
2022-11-27T07:36:28.767Z,23.63
2022-11-27T07:38:57.959Z,22.77
2022-11-27T07:41:33.562Z,22.90
2022-11-27T07:44:02.578Z,21.20
2022-11-27T07:46:31.119Z,22.90
2022-11-27T07:49:00.473Z,22.07
2022-11-27T07:51:29.612Z,21.00
2022-11-27T07:53:57.984Z,22.63
2022-11-27T07:56:27.883Z,22.13
2022-11-27T07:58:57.559Z,23.40
2022-11-27T08:01:26.091Z,23.33
2022-11-27T08:03:54.639Z,24.07
2022-11-27T08:06:25.050Z,22.30
2022-11-27T08:08:55.957Z,20.47
2022-11-27T08:11:25.625Z,21.50
2022-11-27T08:13:58.939Z,22.27
2022-11-27T08:16:27.448Z,23.93
2022-11-27T08:18:56.326Z,22.00
2022-11-27T08:21:24.944Z,21.97
2022-11-27T08:23:53.631Z,21.63
2022-11-27T08:26:21.902Z,23.07
2022-11-27T08:28:53.397Z,21.67
2022-11-27T08:31:23.224Z,22.60
2022-11-27T08:33:51.701Z,20.80
2022-11-27T08:36:19.792Z,21.50
2022-11-27T08:38:48.142Z,21.47
2022-11-27T08:41:16.175Z,22.10
2022-11-27T08:43:44.822Z,22.73
2022-11-27T08:46:13.140Z,21.87
2022-11-27T08:48:43.455Z,22.53
2022-11-27T08:51:13.019Z,22.23
2022-11-27T08:53:41.838Z,21.07
2022-11-27T08:56:12.852Z,19.30
2022-11-27T08:58:41.642Z,20.07
2022-11-27T09:01:11.676Z,20.40
2022-11-27T09:03:40.279Z,20.53
2022-11-27T09:06:12.205Z,18.83
2022-11-27T09:08:41.961Z,20.70
2022-11-27T09:11:11.440Z,21.10
2022-11-27T09:13:41.037Z,15.67
2022-11-27T09:16:11.616Z,17.10
2022-11-27T09:18:40.726Z,16.17
2022-11-27T09:21:12.415Z,16.13
2022-11-27T09:23:41.342Z,15.70
2022-11-27T09:26:11.194Z,16.17
2022-11-27T09:28:40.596Z,16.40
2022-11-27T09:31:10.557Z,15.70
2022-11-27T09:33:39.930Z,15.40
2022-11-27T09:36:11.186Z,13.10
2022-11-27T09:38:40.021Z,14.50
2022-11-27T09:41:23.232Z,14.80
2022-11-27T09:43:56.843Z,15.17
2022-11-27T09:46:32.049Z,15.77
2022-11-27T09:49:03.851Z,16.40
2022-11-27T09:51:38.273Z,17.20
2022-11-27T09:54:16.569Z,16.70
2022-11-27T09:56:49.920Z,14.83
2022-11-27T09:59:20.135Z,16.43
2022-11-27T10:01:51.072Z,16.03
2022-11-27T10:04:21.441Z,15.17
2022-11-27T10:07:07.534Z,14.33
2022-11-27T10:09:44.856Z,14.60
2022-11-27T10:12:22.483Z,14.90
2022-11-27T10:15:01.114Z,14.20
2022-11-27T10:17:35.294Z,13.30
2022-11-27T10:20:16.983Z,13.07
2022-11-27T10:22:57.041Z,13.83
2022-11-27T10:25:30.254Z,11.77
2022-11-27T10:28:13.566Z,11.67
2022-11-27T10:30:50.696Z,12.70
2022-11-27T10:33:24.805Z,11.47
2022-11-27T10:35:53.960Z,10.70
2022-11-27T10:38:27.057Z,12.03
2022-11-27T10:41:04.806Z,11.50
2022-11-27T10:43:36.364Z,11.83
2022-11-27T10:46:13.744Z,11.77
2022-11-27T10:48:42.138Z,10.77
2022-11-27T10:51:15.330Z,10.93
2022-11-27T10:53:47.278Z,11.80
2022-11-27T10:56:35.545Z,10.53
2022-11-27T10:59:06.998Z,11.50
2022-11-27T11:01:45.245Z,10.13
2022-11-27T11:04:36.411Z,10.53
2022-11-27T11:07:25.757Z,11.30
2022-11-27T11:09:56.010Z,11.03
2022-11-27T11:12:25.085Z,12.20
2022-11-27T11:14:54.824Z,10.10
2022-11-27T11:17:28.510Z,10.97
2022-11-27T11:19:56.755Z,9.30
2022-11-27T11:22:29.756Z,9.97
2022-11-27T11:24:59.236Z,9.17
2022-11-27T11:27:32.588Z,9.63
2022-11-27T11:30:03.482Z,10.27
2022-11-27T11:32:36.012Z,9.80
2022-11-27T11:35:08.494Z,9.13
2022-11-27T11:37:41.035Z,9.27
2022-11-27T11:40:23.817Z,9.90
2022-11-27T11:42:54.678Z,8.77
2022-11-27T11:45:23.481Z,8.93
2022-11-27T11:47:53.493Z,9.13
2022-11-27T11:50:31.174Z,8.97
2022-11-27T11:53:05.340Z,9.03
2022-11-27T11:55:40.855Z,9.53
2022-11-27T11:58:36.467Z,10.33
2022-11-27T12:01:26.987Z,8.77
2022-11-27T12:04:15.745Z,9.17
2022-11-27T12:06:56.198Z,9.03
2022-11-27T12:09:40.720Z,8.70
2022-11-27T12:12:22.846Z,10.33
2022-11-27T12:14:57.353Z,9.73
2022-11-27T12:17:42.192Z,9.70
2022-11-27T12:20:21.144Z,10.47
2022-11-27T12:23:40.215Z,9.20
2022-11-27T12:26:19.941Z,10.00
2022-11-27T12:29:03.833Z,10.73
2022-11-27T12:32:01.239Z,9.73
2022-11-27T12:34:41.137Z,9.33
2022-11-27T12:37:22.179Z,10.50
2022-11-27T12:40:03.861Z,10.07
2022-11-27T12:42:39.720Z,10.80
2022-11-27T12:45:18.577Z,10.20
2022-11-27T12:47:54.032Z,10.33
2022-11-27T12:50:27.367Z,10.47
2022-11-27T12:53:01.257Z,10.43
2022-11-27T12:55:32.228Z,11.20
2022-11-27T12:58:04.155Z,10.73
2022-11-27T13:00:37.909Z,11.13
2022-11-27T13:03:12.512Z,12.40
2022-11-27T13:05:45.080Z,11.80
2022-11-27T13:08:18.899Z,11.73
2022-11-27T13:10:53.018Z,11.93
2022-11-27T13:13:25.765Z,13.33
2022-11-27T13:15:58.905Z,11.97
2022-11-27T13:18:33.722Z,12.70
2022-11-27T13:21:06.215Z,11.30
2022-11-27T13:23:35.466Z,12.20
2022-11-27T13:26:07.164Z,11.27
2022-11-27T13:28:42.092Z,11.83
2022-11-27T13:31:20.214Z,12.17
2022-11-27T13:33:49.638Z,12.47
2022-11-27T13:36:24.538Z,11.87
2022-11-27T13:38:56.064Z,11.87
2022-11-27T13:41:34.189Z,12.23
2022-11-27T13:44:05.704Z,12.23
2022-11-27T13:46:48.471Z,13.03
2022-11-27T13:49:27.149Z,12.17
2022-11-27T13:52:06.295Z,13.77
2022-11-27T13:54:34.935Z,13.57
2022-11-27T13:57:14.214Z,12.63
2022-11-27T13:59:42.709Z,14.43
2022-11-27T14:02:12.157Z,13.07
2022-11-27T14:04:55.619Z,13.00
2022-11-27T14:07:25.266Z,13.70
2022-11-27T14:09:56.266Z,11.67
2022-11-27T14:12:26.699Z,12.87
2022-11-27T14:15:01.959Z,13.17
2022-11-27T14:17:38.533Z,15.37
2022-11-27T14:20:22.558Z,13.70
2022-11-27T14:23:12.224Z,14.10
2022-11-27T14:25:41.600Z,14.60
2022-11-27T14:28:16.106Z,14.43
2022-11-27T14:30:48.601Z,15.00
2022-11-27T14:33:23.910Z,14.30
2022-11-27T14:35:55.425Z,14.97
2022-11-27T14:38:25.063Z,15.13
2022-11-27T14:40:55.103Z,16.67
2022-11-27T14:43:26.054Z,14.90
2022-11-27T14:45:58.499Z,16.00
2022-11-27T14:48:33.272Z,15.13
2022-11-27T14:51:02.184Z,13.93
2022-11-27T14:53:30.591Z,16.27
2022-11-27T14:55:59.651Z,15.57
2022-11-27T14:58:29.646Z,15.13
2022-11-27T15:01:01.214Z,15.93
2022-11-27T15:03:31.609Z,15.23
2022-11-27T15:06:03.181Z,15.93
2022-11-27T15:08:35.287Z,15.83
2022-11-27T15:11:05.679Z,16.40
2022-11-27T15:13:35.847Z,17.40
2022-11-27T15:16:07.960Z,21.37
2022-11-27T15:18:39.643Z,17.63
2022-11-27T15:21:12.303Z,17.27
2022-11-27T15:23:46.286Z,16.40
2022-11-27T15:26:19.909Z,16.43
2022-11-27T15:28:57.136Z,17.67
2022-11-27T15:31:29.921Z,16.43
2022-11-27T15:34:02.494Z,15.40
2022-11-27T15:36:40.235Z,18.27
2022-11-27T15:39:19.118Z,17.73
2022-11-27T15:41:57.917Z,17.40
2022-11-27T15:44:27.452Z,16.90
2022-11-27T15:46:57.785Z,16.47
2022-11-27T15:49:27.458Z,17.03
2022-11-27T15:51:56.236Z,16.93
2022-11-27T15:54:24.885Z,17.50
2022-11-27T15:56:53.673Z,15.70
2022-11-27T15:59:21.782Z,18.03
2022-11-27T16:01:50.745Z,17.40
2022-11-27T16:04:19.160Z,26.37
2022-11-27T16:06:48.940Z,19.47
2022-11-27T16:09:17.592Z,17.13
2022-11-27T16:11:46.417Z,16.63
2022-11-27T16:14:14.726Z,18.37
2022-11-27T16:16:43.560Z,17.50
2022-11-27T16:19:12.357Z,17.90
2022-11-27T16:21:40.994Z,27.40
2022-11-27T16:24:13.820Z,23.73
2022-11-27T16:26:42.487Z,21.37
2022-11-27T16:29:11.485Z,20.53
2022-11-27T16:31:40.415Z,19.93
2022-11-27T16:34:08.846Z,19.90
2022-11-27T16:36:43.709Z,21.10
2022-11-27T16:39:13.516Z,20.13
2022-11-27T16:41:42.108Z,20.70
2022-11-27T16:44:12.074Z,19.97
2022-11-27T16:46:43.757Z,21.27
2022-11-27T16:49:13.039Z,20.07
2022-11-27T16:51:43.831Z,21.00
2022-11-27T16:54:14.908Z,22.13
2022-11-27T16:56:45.155Z,21.23
2022-11-27T16:59:15.672Z,19.77
2022-11-27T17:01:45.374Z,19.80
2022-11-27T17:04:18.339Z,21.07
2022-11-27T17:06:47.648Z,20.77
2022-11-27T17:09:17.247Z,19.50
2022-11-27T17:11:49.173Z,20.03
2022-11-27T17:14:19.569Z,20.93
2022-11-27T17:16:48.817Z,19.63
2022-11-27T17:19:18.417Z,21.07
2022-11-27T17:21:47.792Z,21.73
2022-11-27T17:24:17.986Z,21.07
2022-11-27T17:26:48.373Z,20.43
2022-11-27T17:29:18.440Z,20.13
2022-11-27T17:31:46.836Z,20.83
2022-11-27T17:34:16.164Z,19.93
2022-11-27T17:36:46.391Z,20.37
2022-11-27T17:39:17.469Z,21.33
2022-11-27T17:41:46.006Z,19.73
2022-11-27T17:44:14.430Z,20.23
2022-11-27T17:46:45.331Z,21.67
2022-11-27T17:49:14.286Z,19.73
2022-11-27T17:51:42.924Z,18.40
2022-11-27T17:54:15.285Z,20.63
2022-11-27T17:56:51.067Z,19.67
2022-11-27T17:59:20.227Z,21.43
2022-11-27T18:01:51.455Z,19.93
2022-11-27T18:04:20.462Z,24.57
2022-11-27T18:06:48.983Z,19.67
2022-11-27T18:09:17.190Z,19.47
2022-11-27T18:11:46.955Z,19.90
2022-11-27T18:14:15.313Z,19.77
2022-11-27T18:16:43.722Z,19.03
2022-11-27T18:19:12.628Z,20.13
2022-11-27T18:21:41.255Z,19.03
2022-11-27T18:24:25.493Z,19.43
2022-11-27T18:27:08.219Z,19.00
2022-11-27T18:29:37.989Z,19.07
2022-11-27T18:32:07.127Z,18.70
2022-11-27T18:34:35.691Z,20.00
2022-11-27T18:37:04.526Z,19.93
2022-11-27T18:39:33.277Z,19.90
2022-11-27T18:42:03.458Z,21.43
2022-11-27T18:44:32.083Z,27.47
2022-11-27T18:47:00.895Z,25.23
2022-11-27T18:49:29.416Z,22.03
2022-11-27T18:51:57.764Z,20.03
2022-11-27T18:54:26.000Z,21.10
2022-11-27T18:56:54.384Z,20.43
2022-11-27T18:59:25.453Z,20.47
2022-11-27T19:01:54.475Z,20.83
2022-11-27T19:04:22.743Z,19.37
2022-11-27T19:06:51.098Z,19.63
2022-11-27T19:09:22.280Z,19.60
2022-11-27T19:11:50.671Z,19.53
2022-11-27T19:14:19.589Z,19.77
2022-11-27T19:16:50.698Z,19.83
2022-11-27T19:22:10.842Z,19.87
2022-11-27T19:24:41.061Z,18.80
2022-11-27T19:27:09.664Z,21.03
2022-11-27T19:29:37.935Z,18.07
2022-11-27T19:32:07.955Z,23.37
2022-11-27T19:34:36.633Z,25.57
2022-11-27T19:37:05.001Z,19.87
2022-11-27T19:39:33.322Z,20.63
2022-11-27T19:42:01.804Z,21.20
2022-11-27T19:44:30.324Z,18.70
2022-11-27T19:46:58.844Z,20.13
2022-11-27T19:49:28.496Z,20.50
2022-11-27T19:51:57.207Z,18.23
2022-11-27T19:54:26.654Z,17.03
2022-11-27T19:56:55.786Z,20.10
2022-11-27T19:59:26.168Z,18.20
2022-11-27T20:01:56.416Z,19.83
2022-11-27T20:04:30.729Z,17.87
2022-11-27T20:06:59.175Z,17.90
2022-11-27T20:09:27.367Z,18.53
2022-11-27T20:11:57.256Z,18.70
2022-11-27T20:14:25.560Z,17.43
2022-11-27T20:16:55.249Z,18.50
2022-11-27T20:19:23.913Z,18.73
2022-11-27T20:21:53.667Z,18.27
2022-11-27T20:24:22.490Z,17.63
2022-11-27T20:26:51.169Z,18.07
2022-11-27T20:29:20.159Z,17.07
2022-11-27T20:31:49.224Z,18.57
2022-11-27T20:34:19.701Z,18.43
2022-11-27T20:36:49.841Z,18.73
2022-11-27T20:39:21.957Z,18.87
2022-11-27T20:41:53.380Z,18.67
2022-11-27T20:44:22.325Z,19.13
2022-11-27T20:46:51.308Z,20.80
2022-11-27T20:49:19.666Z,20.73
2022-11-27T20:51:50.460Z,18.77
2022-11-27T20:54:22.935Z,19.53
2022-11-27T20:56:51.789Z,19.20
2022-11-27T20:59:22.113Z,19.53
2022-11-27T21:01:51.611Z,19.17
2022-11-27T21:04:24.755Z,18.03
2022-11-27T21:06:54.816Z,18.53
2022-11-27T21:09:24.833Z,20.20
2022-11-27T21:11:53.993Z,19.73
2022-11-27T21:14:24.124Z,19.13
2022-11-27T21:16:53.813Z,19.53
2022-11-27T21:19:25.315Z,19.27
2022-11-27T21:21:57.149Z,20.40
2022-11-27T21:24:28.415Z,19.77
2022-11-27T21:27:00.420Z,19.53
2022-11-27T21:29:28.697Z,19.40
2022-11-27T21:31:59.400Z,19.70
2022-11-27T21:34:29.803Z,18.57
2022-11-27T21:36:58.254Z,20.40
2022-11-27T21:39:27.755Z,20.67
2022-11-27T21:41:57.102Z,20.47
2022-11-27T21:44:26.286Z,20.47
2022-11-27T21:46:55.315Z,18.97
2022-11-27T21:49:23.953Z,19.93
2022-11-27T21:51:53.905Z,17.63
2022-11-27T21:54:27.667Z,19.60
2022-11-27T21:56:57.503Z,20.23
2022-11-27T21:59:25.889Z,20.27
2022-11-27T22:01:57.094Z,20.70
2022-11-27T22:04:25.513Z,20.50
2022-11-27T22:06:54.445Z,18.03
2022-11-27T22:09:22.646Z,18.83
2022-11-27T22:11:53.716Z,19.10
2022-11-27T22:14:24.081Z,20.77
2022-11-27T22:16:52.936Z,22.23
2022-11-27T22:19:22.226Z,20.10
2022-11-27T22:21:51.021Z,20.23
2022-11-27T22:24:19.931Z,19.00
2022-11-27T22:26:54.148Z,21.60
2022-11-27T22:29:22.271Z,21.80
2022-11-27T22:31:52.707Z,20.97
2022-11-27T22:34:21.200Z,20.60
2022-11-27T22:36:50.093Z,22.17
2022-11-27T22:39:18.230Z,22.33
2022-11-27T22:41:47.479Z,21.50
2022-11-27T22:44:18.266Z,22.47
2022-11-27T22:46:46.760Z,21.33
2022-11-27T22:49:16.384Z,21.07
2022-11-27T22:51:45.711Z,22.20
2022-11-27T22:54:17.047Z,22.90
2022-11-27T22:56:46.720Z,22.27
2022-11-27T22:59:34.091Z,21.83
2022-11-27T23:02:05.767Z,23.03
2022-11-27T23:04:34.578Z,24.63
2022-11-27T23:07:04.072Z,24.30
2022-11-27T23:09:34.841Z,24.53
2022-11-27T23:12:03.267Z,27.97
2022-11-27T23:14:32.729Z,28.83
2022-11-27T23:17:01.071Z,27.70
2022-11-27T23:19:29.151Z,25.00
2022-11-27T23:21:57.442Z,25.67
2022-11-27T23:24:25.534Z,26.63
2022-11-27T23:26:54.175Z,27.43
2022-11-27T23:29:22.262Z,25.47
2022-11-27T23:31:52.138Z,26.77
2022-11-27T23:34:20.300Z,27.30
2022-11-27T23:36:48.800Z,26.90
2022-11-27T23:39:16.899Z,26.03
2022-11-27T23:41:46.258Z,26.83
2022-11-27T23:44:14.617Z,27.33
2022-11-27T23:46:42.859Z,27.37
2022-11-27T23:49:12.252Z,26.70
2022-11-27T23:51:40.752Z,26.93
2022-11-27T23:54:10.432Z,25.93
2022-11-27T23:56:40.767Z,26.70
2022-11-27T23:59:08.831Z,27.90
